createdAt,value
2023-02-23T00:00:05.048Z,1021.07
2023-02-23T00:01:05.649Z,1021.11
2023-02-23T00:02:06.347Z,1021.05
2023-02-23T00:03:07.010Z,1021.04
2023-02-23T00:04:07.644Z,1021.02
2023-02-23T00:05:08.246Z,1021.01
2023-02-23T00:06:08.852Z,1021.05
2023-02-23T00:07:09.464Z,1021.02
2023-02-23T00:08:10.067Z,1020.97
2023-02-23T00:09:10.671Z,1020.99
2023-02-23T00:10:11.278Z,1021.04
2023-02-23T00:11:11.880Z,1020.90
2023-02-23T00:12:12.493Z,1020.97
2023-02-23T00:13:13.090Z,1020.81
2023-02-23T00:14:13.691Z,1020.92
2023-02-23T00:15:14.290Z,1020.88
2023-02-23T00:16:14.910Z,1020.87
2023-02-23T00:17:15.660Z,1020.98
2023-02-23T00:18:16.283Z,1020.93
2023-02-23T00:19:16.949Z,1020.90
2023-02-23T00:20:17.664Z,1020.83
2023-02-23T00:21:18.701Z,1020.84
2023-02-23T00:22:19.494Z,1020.81
2023-02-23T00:23:20.116Z,1020.93
2023-02-23T00:24:20.714Z,1020.98
2023-02-23T00:25:21.309Z,1020.90
2023-02-23T00:26:21.927Z,1020.88
2023-02-23T00:27:22.521Z,1020.94
2023-02-23T00:28:23.132Z,1020.88
2023-02-23T00:29:23.821Z,1020.91
2023-02-23T00:30:25.274Z,1020.88
2023-02-23T00:31:25.990Z,1020.80
2023-02-23T00:32:26.755Z,1020.81
2023-02-23T00:33:28.203Z,1020.80
2023-02-23T00:34:28.812Z,1020.88
2023-02-23T00:35:29.465Z,1020.91
2023-02-23T00:36:30.115Z,1020.93
2023-02-23T00:37:30.715Z,1020.93
2023-02-23T00:38:31.324Z,1020.85
2023-02-23T00:39:31.981Z,1020.90
2023-02-23T00:40:32.581Z,1020.91
2023-02-23T00:41:33.185Z,1020.88
2023-02-23T00:42:33.787Z,1020.85
2023-02-23T00:43:34.399Z,1020.90
2023-02-23T00:44:35.057Z,1020.86
2023-02-23T00:45:35.720Z,1020.90
2023-02-23T00:46:36.331Z,1020.84
2023-02-23T00:47:36.943Z,1020.84
2023-02-23T00:48:37.540Z,1020.94
2023-02-23T00:49:38.142Z,1020.89
2023-02-23T00:50:38.753Z,1020.98
2023-02-23T00:51:39.361Z,1020.89
2023-02-23T00:52:39.962Z,1020.95
2023-02-23T00:53:40.566Z,1020.90
2023-02-23T00:54:41.177Z,1020.88
2023-02-23T00:55:41.862Z,1020.95
2023-02-23T00:56:42.474Z,1020.87
2023-02-23T00:57:43.074Z,1020.79
2023-02-23T00:58:43.678Z,1020.84
2023-02-23T00:59:44.281Z,1020.92
2023-02-23T01:00:44.897Z,1020.83
2023-02-23T01:01:45.539Z,1020.95
2023-02-23T01:02:46.215Z,1020.85
2023-02-23T01:03:46.814Z,1020.91
2023-02-23T01:04:47.428Z,1020.93
2023-02-23T01:05:48.037Z,1020.95
2023-02-23T01:06:48.669Z,1020.89
2023-02-23T01:07:49.287Z,1020.85
2023-02-23T01:08:49.890Z,1020.77
2023-02-23T01:09:50.497Z,1020.86
2023-02-23T01:10:51.098Z,1020.82
2023-02-23T01:11:51.698Z,1020.75
2023-02-23T01:12:52.309Z,1020.89
2023-02-23T01:13:52.973Z,1020.81
2023-02-23T01:14:53.574Z,1020.82
2023-02-23T01:15:54.235Z,1020.83
2023-02-23T01:16:54.846Z,1020.73
2023-02-23T01:17:55.468Z,1020.76
2023-02-23T01:18:56.061Z,1020.77
2023-02-23T01:19:56.670Z,1020.80
2023-02-23T01:20:57.277Z,1020.74
2023-02-23T01:21:57.877Z,1020.74
2023-02-23T01:22:58.481Z,1020.76
2023-02-23T01:23:59.079Z,1020.80
2023-02-23T01:25:00.483Z,1020.66
2023-02-23T01:26:01.085Z,1020.68
2023-02-23T01:27:01.682Z,1020.74
2023-02-23T01:28:02.284Z,1020.59
2023-02-23T01:29:02.877Z,1020.71
2023-02-23T01:30:03.478Z,1020.70
2023-02-23T01:31:04.256Z,1020.64
2023-02-23T01:32:05.269Z,1020.72
2023-02-23T01:33:05.905Z,1020.66
2023-02-23T01:34:09.609Z,1020.63
2023-02-23T01:35:10.213Z,1020.59
2023-02-23T01:36:10.929Z,1020.60
2023-02-23T01:37:11.526Z,1020.68
2023-02-23T01:38:12.116Z,1020.73
2023-02-23T01:39:12.719Z,1020.73
2023-02-23T01:40:13.373Z,1020.72
2023-02-23T01:41:14.016Z,1020.70
2023-02-23T01:42:14.674Z,1020.76
2023-02-23T01:43:15.315Z,1020.68
2023-02-23T01:44:15.925Z,1020.65
2023-02-23T01:45:16.513Z,1020.69
2023-02-23T01:46:17.140Z,1020.80
2023-02-23T01:47:17.763Z,1020.81
2023-02-23T01:48:18.360Z,1020.87
2023-02-23T01:49:18.966Z,1020.76
2023-02-23T01:50:19.557Z,1020.72
2023-02-23T01:51:20.363Z,1020.81
2023-02-23T01:52:21.090Z,1020.75
2023-02-23T01:53:21.733Z,1020.74
2023-02-23T01:54:22.331Z,1020.79
2023-02-23T01:55:22.927Z,1020.73
2023-02-23T01:56:23.645Z,1020.77
2023-02-23T01:57:24.265Z,1020.84
2023-02-23T01:58:24.859Z,1020.70
2023-02-23T01:59:25.456Z,1020.72
2023-02-23T02:00:26.047Z,1020.75
2023-02-23T02:01:26.664Z,1020.68
2023-02-23T02:02:27.252Z,1020.71
2023-02-23T02:03:27.867Z,1020.75
2023-02-23T02:04:28.460Z,1020.69
2023-02-23T02:05:29.052Z,1020.73
2023-02-23T02:06:29.644Z,1020.70
2023-02-23T02:07:30.244Z,1020.71
2023-02-23T02:08:30.905Z,1020.58
2023-02-23T02:09:31.498Z,1020.72
2023-02-23T02:10:32.108Z,1020.71
2023-02-23T02:11:32.696Z,1020.72
2023-02-23T02:12:33.295Z,1020.67
2023-02-23T02:13:33.901Z,1020.65
2023-02-23T02:14:34.499Z,1020.53
2023-02-23T02:15:35.095Z,1020.63
2023-02-23T02:16:35.690Z,1020.69
2023-02-23T02:17:36.286Z,1020.68
2023-02-23T02:18:36.890Z,1020.69
2023-02-23T02:19:37.494Z,1020.60
2023-02-23T02:20:38.089Z,1020.61
2023-02-23T02:21:38.760Z,1020.62
2023-02-23T02:22:39.365Z,1020.64
2023-02-23T02:23:39.975Z,1020.53
2023-02-23T02:24:40.689Z,1020.64
2023-02-23T02:25:41.273Z,1020.70
2023-02-23T02:26:41.869Z,1020.62
2023-02-23T02:27:42.467Z,1020.62
2023-02-23T02:28:43.061Z,1020.70
2023-02-23T02:29:43.662Z,1020.72
2023-02-23T02:30:44.270Z,1020.55
2023-02-23T02:31:44.959Z,1020.55
2023-02-23T02:32:45.583Z,1020.72
2023-02-23T02:33:46.188Z,1020.65
2023-02-23T02:34:46.786Z,1020.66
2023-02-23T02:35:47.455Z,1020.65
2023-02-23T02:36:48.053Z,1020.68
2023-02-23T02:37:48.662Z,1020.52
2023-02-23T02:38:49.310Z,1020.56
2023-02-23T02:39:49.914Z,1020.58
2023-02-23T02:40:50.618Z,1020.57
2023-02-23T02:41:51.290Z,1020.51
2023-02-23T02:42:51.916Z,1020.55
2023-02-23T02:43:52.511Z,1020.53
2023-02-23T02:44:53.107Z,1020.60
2023-02-23T02:45:53.737Z,1020.54
2023-02-23T02:46:54.311Z,1020.56
2023-02-23T02:47:54.969Z,1020.50
2023-02-23T02:48:55.610Z,1020.51
2023-02-23T02:49:56.208Z,1020.55
2023-02-23T02:50:56.812Z,1020.49
2023-02-23T02:51:57.410Z,1020.46
2023-02-23T02:52:58.010Z,1020.47
2023-02-23T02:53:58.605Z,1020.38
2023-02-23T02:54:59.212Z,1020.50
2023-02-23T02:55:59.824Z,1020.49
2023-02-23T02:57:00.458Z,1020.49
2023-02-23T02:58:01.069Z,1020.45
2023-02-23T02:59:01.660Z,1020.46
2023-02-23T03:00:02.255Z,1020.36
2023-02-23T03:01:02.853Z,1020.43
2023-02-23T03:02:03.510Z,1020.51
2023-02-23T03:03:04.104Z,1020.31
2023-02-23T03:04:04.701Z,1020.34
2023-02-23T03:05:05.380Z,1020.31
2023-02-23T03:06:05.993Z,1020.36
2023-02-23T03:07:06.591Z,1020.33
2023-02-23T03:08:07.251Z,1020.40
2023-02-23T03:09:07.842Z,1020.35
2023-02-23T03:10:08.436Z,1020.29
2023-02-23T03:11:09.044Z,1020.32
2023-02-23T03:12:09.645Z,1020.25
2023-02-23T03:13:10.239Z,1020.39
2023-02-23T03:14:10.839Z,1020.33
2023-02-23T03:15:11.433Z,1020.30
2023-02-23T03:16:12.122Z,1020.32
2023-02-23T03:17:12.758Z,1020.29
2023-02-23T03:18:13.344Z,1020.21
2023-02-23T03:19:13.949Z,1020.27
2023-02-23T03:20:14.541Z,1020.26
2023-02-23T03:21:15.149Z,1020.21
2023-02-23T03:22:15.753Z,1020.26
2023-02-23T03:23:16.342Z,1020.11
2023-02-23T03:24:16.968Z,1020.18
2023-02-23T03:25:17.558Z,1020.19
2023-02-23T03:26:18.148Z,1020.07
2023-02-23T03:27:18.742Z,1020.18
2023-02-23T03:28:19.338Z,1020.12
2023-02-23T03:29:19.935Z,1020.13
2023-02-23T03:30:20.552Z,1020.10
2023-02-23T03:31:21.376Z,1020.11
2023-02-23T03:32:22.284Z,1020.05
2023-02-23T03:33:22.915Z,1020.09
2023-02-23T03:34:23.503Z,1020.08
2023-02-23T03:35:24.108Z,1020.13
2023-02-23T03:36:24.704Z,1020.10
2023-02-23T03:37:25.295Z,1020.14
2023-02-23T03:38:25.896Z,1020.12
2023-02-23T03:39:26.565Z,1020.03
2023-02-23T03:40:27.166Z,1020.06
2023-02-23T03:41:27.768Z,1019.99
2023-02-23T03:42:28.451Z,1020.12
2023-02-23T03:43:29.056Z,1020.08
2023-02-23T03:44:29.649Z,1019.95
2023-02-23T03:45:30.284Z,1020.01
2023-02-23T03:46:30.878Z,1020.06
2023-02-23T03:47:31.476Z,1019.95
2023-02-23T03:48:32.137Z,1020.03
2023-02-23T03:49:32.769Z,1019.95
2023-02-23T03:50:33.373Z,1019.96
2023-02-23T03:51:33.977Z,1020.05
2023-02-23T03:52:34.594Z,1019.98
2023-02-23T03:53:35.288Z,1019.92
2023-02-23T03:54:35.954Z,1019.91
2023-02-23T03:55:36.550Z,1019.95
2023-02-23T03:56:37.155Z,1019.90
2023-02-23T03:57:37.751Z,1019.90
2023-02-23T03:58:38.353Z,1019.97
2023-02-23T03:59:38.943Z,1019.88
2023-02-23T04:00:39.549Z,1020.01
2023-02-23T04:01:40.161Z,1020.02
2023-02-23T04:02:40.752Z,1019.91
2023-02-23T04:03:41.354Z,1019.98
2023-02-23T04:04:41.941Z,1019.92
2023-02-23T04:05:43.352Z,1019.94
2023-02-23T04:06:43.943Z,1020.00
2023-02-23T04:07:44.542Z,1020.02
2023-02-23T04:08:45.996Z,1020.06
2023-02-23T04:09:46.589Z,1020.10
2023-02-23T04:10:47.987Z,1019.99
2023-02-23T04:11:48.590Z,1020.03
2023-02-23T04:12:49.184Z,1020.06
2023-02-23T04:13:49.782Z,1020.07
2023-02-23T04:14:50.378Z,1019.96
2023-02-23T04:15:51.073Z,1020.01
2023-02-23T04:16:51.789Z,1020.01
2023-02-23T04:17:52.374Z,1019.98
2023-02-23T04:18:52.989Z,1020.03
2023-02-23T04:19:53.580Z,1020.05
2023-02-23T04:20:54.200Z,1020.04
2023-02-23T04:21:54.802Z,1019.92
2023-02-23T04:22:55.401Z,1020.00
2023-02-23T04:23:56.000Z,1019.86
2023-02-23T04:24:56.593Z,1019.91
2023-02-23T04:25:57.209Z,1019.93
2023-02-23T04:26:57.803Z,1019.93
2023-02-23T04:27:58.417Z,1019.95
2023-02-23T04:28:59.012Z,1019.90
2023-02-23T04:29:59.613Z,1019.90
2023-02-23T04:31:00.252Z,1019.87
2023-02-23T04:32:00.910Z,1019.86
2023-02-23T04:33:01.531Z,1019.80
2023-02-23T04:34:02.208Z,1019.86
2023-02-23T04:35:02.796Z,1019.92
2023-02-23T04:36:03.389Z,1019.89
2023-02-23T04:37:03.993Z,1019.83
2023-02-23T04:38:04.600Z,1019.90
2023-02-23T04:39:05.192Z,1019.84
2023-02-23T04:40:05.814Z,1019.83
2023-02-23T04:41:06.407Z,1019.88
2023-02-23T04:42:07.012Z,1019.95
2023-02-23T04:43:07.600Z,1019.89
2023-02-23T04:44:08.202Z,1019.88
2023-02-23T04:45:08.791Z,1019.88
2023-02-23T04:46:09.422Z,1019.90
2023-02-23T04:47:10.030Z,1019.88
2023-02-23T04:48:10.637Z,1019.88
2023-02-23T04:49:11.268Z,1019.90
2023-02-23T04:50:11.872Z,1019.88
2023-02-23T04:51:12.468Z,1019.86
2023-02-23T04:52:13.071Z,1019.81
2023-02-23T04:53:13.663Z,1019.85
2023-02-23T04:54:14.270Z,1019.89
2023-02-23T04:55:14.969Z,1019.90
2023-02-23T04:56:15.562Z,1019.90
2023-02-23T04:57:17.008Z,1019.87
2023-02-23T04:58:17.754Z,1019.91
2023-02-23T04:59:18.396Z,1019.91
2023-02-23T05:00:19.001Z,1019.88
2023-02-23T05:01:19.991Z,1019.96
2023-02-23T05:02:21.631Z,1019.89
2023-02-23T05:03:22.294Z,1019.95
2023-02-23T05:04:22.895Z,1019.92
2023-02-23T05:05:23.501Z,1019.91
2023-02-23T05:06:24.173Z,1019.98
2023-02-23T05:07:24.769Z,1019.94
2023-02-23T05:08:25.372Z,1019.88
2023-02-23T05:09:25.964Z,1019.88
2023-02-23T05:10:26.569Z,1019.89
2023-02-23T05:11:27.222Z,1019.85
2023-02-23T05:12:27.816Z,1019.99
2023-02-23T05:13:28.451Z,1019.97
2023-02-23T05:14:29.080Z,1019.95
2023-02-23T05:15:29.684Z,1019.93
2023-02-23T05:16:30.296Z,1019.91
2023-02-23T05:17:30.956Z,1019.92
2023-02-23T05:18:31.562Z,1019.91
2023-02-23T05:19:32.167Z,1019.89
2023-02-23T05:20:32.774Z,1019.90
2023-02-23T05:21:33.361Z,1019.90
2023-02-23T05:22:33.965Z,1019.93
2023-02-23T05:23:34.578Z,1019.90
2023-02-23T05:24:35.181Z,1019.91
2023-02-23T05:25:35.782Z,1019.95
2023-02-23T05:26:36.376Z,1019.93
2023-02-23T05:27:37.108Z,1019.83
2023-02-23T05:28:37.743Z,1019.90
2023-02-23T05:29:38.349Z,1019.88
2023-02-23T05:30:39.006Z,1019.86
2023-02-23T05:31:40.453Z,1019.88
2023-02-23T05:32:41.073Z,1019.78
2023-02-23T05:33:41.681Z,1019.78
2023-02-23T05:34:42.282Z,1019.82
2023-02-23T05:35:42.870Z,1019.76
2023-02-23T05:36:43.475Z,1019.74
2023-02-23T05:37:44.070Z,1019.76
2023-02-23T05:38:44.669Z,1019.83
2023-02-23T05:39:45.262Z,1019.74
2023-02-23T05:40:45.864Z,1019.80
2023-02-23T05:41:46.527Z,1019.73
2023-02-23T05:42:47.123Z,1019.85
2023-02-23T05:43:47.729Z,1019.69
2023-02-23T05:44:48.320Z,1019.73
2023-02-23T05:45:48.923Z,1019.79
2023-02-23T05:46:49.530Z,1019.73
2023-02-23T05:47:50.130Z,1019.79
2023-02-23T05:48:50.726Z,1019.75
2023-02-23T05:49:51.320Z,1019.72
2023-02-23T05:50:51.916Z,1019.66
2023-02-23T05:51:52.510Z,1019.72
2023-02-23T05:52:53.115Z,1019.66
2023-02-23T05:53:53.719Z,1019.65
2023-02-23T05:54:54.317Z,1019.70
2023-02-23T05:55:55.001Z,1019.63
2023-02-23T05:56:55.645Z,1019.61
2023-02-23T05:57:56.258Z,1019.65
2023-02-23T05:58:56.937Z,1019.54
2023-02-23T05:59:57.523Z,1019.58
2023-02-23T06:00:58.162Z,1019.63
2023-02-23T06:01:58.766Z,1019.58
2023-02-23T06:02:59.368Z,1019.66
2023-02-23T06:04:00.015Z,1019.54
2023-02-23T06:05:00.680Z,1019.62
2023-02-23T06:06:01.435Z,1019.67
2023-02-23T06:07:02.028Z,1019.65
2023-02-23T06:08:02.623Z,1019.58
2023-02-23T06:09:03.225Z,1019.58
2023-02-23T06:10:04.705Z,1019.58
2023-02-23T06:11:05.297Z,1019.63
2023-02-23T06:12:05.901Z,1019.60
2023-02-23T06:13:06.504Z,1019.65
2023-02-23T06:14:07.149Z,1019.63
2023-02-23T06:15:07.760Z,1019.54
2023-02-23T06:16:08.626Z,1019.48
2023-02-23T06:17:09.361Z,1019.59
2023-02-23T06:18:09.950Z,1019.50
2023-02-23T06:19:10.551Z,1019.60
2023-02-23T06:20:11.147Z,1019.55
2023-02-23T06:21:11.743Z,1019.63
2023-02-23T06:22:12.347Z,1019.60
2023-02-23T06:23:12.950Z,1019.64
2023-02-23T06:24:13.539Z,1019.47
2023-02-23T06:25:14.137Z,1019.60
2023-02-23T06:26:14.734Z,1019.61
2023-02-23T06:27:15.336Z,1019.55
2023-02-23T06:28:15.937Z,1019.60
2023-02-23T06:29:16.533Z,1019.57
2023-02-23T06:30:17.142Z,1019.56
2023-02-23T06:31:18.306Z,1019.57
2023-02-23T06:32:18.684Z,1019.52
2023-02-23T06:33:19.313Z,1019.57
2023-02-23T06:34:19.957Z,1019.61
2023-02-23T06:35:20.593Z,1019.55
2023-02-23T06:36:21.234Z,1019.59
2023-02-23T06:37:21.881Z,1019.53
2023-02-23T06:38:22.575Z,1019.55
2023-02-23T06:39:23.178Z,1019.61
2023-02-23T06:40:23.779Z,1019.57
2023-02-23T06:41:24.382Z,1019.52
2023-02-23T06:42:24.978Z,1019.56
2023-02-23T06:43:25.577Z,1019.60
2023-02-23T06:44:26.182Z,1019.61
2023-02-23T06:45:26.836Z,1019.62
2023-02-23T06:46:27.465Z,1019.58
2023-02-23T06:47:28.053Z,1019.58
2023-02-23T06:48:29.523Z,1019.64
2023-02-23T06:49:30.111Z,1019.65
2023-02-23T06:50:30.714Z,1019.65
2023-02-23T06:51:31.316Z,1019.56
2023-02-23T06:52:31.929Z,1019.58
2023-02-23T06:53:32.525Z,1019.55
2023-02-23T06:54:33.129Z,1019.55
2023-02-23T06:55:33.726Z,1019.54
2023-02-23T06:56:34.328Z,1019.55
2023-02-23T06:57:34.927Z,1019.54
2023-02-23T06:58:35.605Z,1019.49
2023-02-23T06:59:36.206Z,1019.57
2023-02-23T07:00:36.795Z,1019.51
2023-02-23T07:01:37.463Z,1019.53
2023-02-23T07:02:38.064Z,1019.53
2023-02-23T07:03:38.688Z,1019.42
2023-02-23T07:04:39.299Z,1019.55
2023-02-23T07:05:39.912Z,1019.45
2023-02-23T07:06:41.304Z,1019.48
2023-02-23T07:07:41.901Z,1019.46
2023-02-23T07:08:42.566Z,1019.48
2023-02-23T07:09:43.160Z,1019.41
2023-02-23T07:10:43.781Z,1019.39
2023-02-23T07:11:44.423Z,1019.48
2023-02-23T07:12:45.020Z,1019.37
2023-02-23T07:13:45.617Z,1019.39
2023-02-23T07:14:46.216Z,1019.47
2023-02-23T07:15:46.812Z,1019.39
2023-02-23T07:16:47.414Z,1019.42
2023-02-23T07:17:48.005Z,1019.46
2023-02-23T07:18:48.604Z,1019.36
2023-02-23T07:19:49.209Z,1019.45
2023-02-23T07:20:49.803Z,1019.36
2023-02-23T07:21:50.410Z,1019.31
2023-02-23T07:22:50.998Z,1019.43
2023-02-23T07:23:51.646Z,1019.46
2023-02-23T07:24:52.261Z,1019.48
2023-02-23T07:25:52.859Z,1019.38
2023-02-23T07:26:53.458Z,1019.45
2023-02-23T07:27:54.071Z,1019.40
2023-02-23T07:28:54.655Z,1019.38
2023-02-23T07:29:55.248Z,1019.45
2023-02-23T07:30:55.882Z,1019.41
2023-02-23T07:31:56.704Z,1019.40
2023-02-23T07:32:57.508Z,1019.45
2023-02-23T07:33:58.166Z,1019.38
2023-02-23T07:34:58.768Z,1019.38
2023-02-23T07:35:59.363Z,1019.38
2023-02-23T07:36:59.968Z,1019.50
2023-02-23T07:38:00.567Z,1019.50
2023-02-23T07:39:02.016Z,1019.45
2023-02-23T07:40:02.677Z,1019.45
2023-02-23T07:41:03.271Z,1019.46
2023-02-23T07:42:03.865Z,1019.45
2023-02-23T07:43:04.517Z,1019.46
2023-02-23T07:44:05.114Z,1019.43
2023-02-23T07:45:05.762Z,1019.49
2023-02-23T07:46:07.226Z,1019.42
2023-02-23T07:47:07.827Z,1019.49
2023-02-23T07:48:08.418Z,1019.44
2023-02-23T07:49:09.016Z,1019.41
2023-02-23T07:50:09.612Z,1019.43
2023-02-23T07:51:10.210Z,1019.47
2023-02-23T07:52:10.870Z,1019.49
2023-02-23T07:53:11.548Z,1019.54
2023-02-23T07:54:12.145Z,1019.47
2023-02-23T07:55:12.752Z,1019.48
2023-02-23T07:56:13.348Z,1019.48
2023-02-23T07:57:14.001Z,1019.47
2023-02-23T07:58:14.604Z,1019.52
2023-02-23T07:59:15.216Z,1019.51
2023-02-23T08:00:15.927Z,1019.51
2023-02-23T08:01:16.644Z,1019.45
2023-02-23T08:02:17.447Z,1019.48
2023-02-23T08:03:18.040Z,1019.46
2023-02-23T08:04:18.676Z,1019.48
2023-02-23T08:05:19.312Z,1019.48
2023-02-23T08:06:19.915Z,1019.53
2023-02-23T08:07:20.512Z,1019.55
2023-02-23T08:08:21.111Z,1019.54
2023-02-23T08:09:21.706Z,1019.51
2023-02-23T08:10:22.304Z,1019.58
2023-02-23T08:11:23.700Z,1019.65
2023-02-23T08:12:24.296Z,1019.58
2023-02-23T08:13:24.893Z,1019.62
2023-02-23T08:14:25.495Z,1019.56
2023-02-23T08:15:26.103Z,1019.53
2023-02-23T08:16:26.792Z,1019.54
2023-02-23T08:17:27.458Z,1019.51
2023-02-23T08:18:28.146Z,1019.58
2023-02-23T08:19:28.779Z,1019.51
2023-02-23T08:20:29.434Z,1019.64
2023-02-23T08:21:30.104Z,1019.62
2023-02-23T08:22:40.495Z,1019.70
2023-02-23T08:23:32.358Z,1019.68
2023-02-23T08:24:32.960Z,1019.62
2023-02-23T08:25:33.626Z,1019.70
2023-02-23T08:26:34.221Z,1019.72
2023-02-23T08:27:34.827Z,1019.72
2023-02-23T08:28:35.432Z,1019.66
2023-02-23T08:29:36.837Z,1019.75
2023-02-23T08:30:37.543Z,1019.78
2023-02-23T08:31:38.356Z,1019.78
2023-02-23T08:32:39.284Z,1019.81
2023-02-23T08:33:39.937Z,1019.74
2023-02-23T08:34:40.548Z,1019.85
2023-02-23T08:35:41.137Z,1019.81
2023-02-23T08:36:41.733Z,1019.71
2023-02-23T08:37:42.551Z,1019.74
2023-02-23T08:38:43.141Z,1019.71
2023-02-23T08:39:43.889Z,1019.76
2023-02-23T08:40:44.503Z,1019.76
2023-02-23T08:41:45.105Z,1019.70
2023-02-23T08:42:45.700Z,1019.72
2023-02-23T08:43:46.334Z,1019.74
2023-02-23T08:44:46.953Z,1019.76
2023-02-23T08:45:47.619Z,1019.71
2023-02-23T08:46:48.244Z,1019.67
2023-02-23T08:47:48.856Z,1019.68
2023-02-23T08:48:49.439Z,1019.73
2023-02-23T08:49:50.880Z,1019.74
2023-02-23T08:50:51.476Z,1019.80
2023-02-23T08:51:52.079Z,1019.71
2023-02-23T08:52:52.707Z,1019.76
2023-02-23T08:53:53.374Z,1019.75
2023-02-23T08:54:53.976Z,1019.81
2023-02-23T08:55:54.582Z,1019.80
2023-02-23T08:56:55.184Z,1019.81
2023-02-23T08:57:55.800Z,1019.85
2023-02-23T08:58:56.452Z,1019.80
2023-02-23T08:59:57.104Z,1019.80
2023-02-23T09:00:57.702Z,1019.80
2023-02-23T09:01:59.161Z,1019.78
2023-02-23T09:02:59.873Z,1019.85
2023-02-23T09:04:00.472Z,1019.77
2023-02-23T09:05:01.113Z,1019.87
2023-02-23T09:06:01.778Z,1019.87
2023-02-23T09:07:02.422Z,1019.87
2023-02-23T09:08:03.025Z,1019.88
2023-02-23T09:09:03.621Z,1019.78
2023-02-23T09:10:04.214Z,1019.89
2023-02-23T09:11:04.812Z,1019.81
2023-02-23T09:12:05.413Z,1019.83
2023-02-23T09:13:06.030Z,1019.87
2023-02-23T09:14:07.458Z,1019.83
2023-02-23T09:15:08.054Z,1019.87
2023-02-23T09:16:08.785Z,1019.85
2023-02-23T09:17:09.400Z,1019.90
2023-02-23T09:18:10.005Z,1019.83
2023-02-23T09:19:10.609Z,1019.87
2023-02-23T09:20:11.209Z,1019.85
2023-02-23T09:21:11.804Z,1019.78
2023-02-23T09:22:12.405Z,1019.85
2023-02-23T09:23:13.031Z,1019.80
2023-02-23T09:24:13.628Z,1019.78
2023-02-23T09:25:14.228Z,1019.76
2023-02-23T09:26:14.824Z,1019.78
2023-02-23T09:27:15.419Z,1019.87
2023-02-23T09:28:16.021Z,1019.82
2023-02-23T09:29:16.611Z,1019.77
2023-02-23T09:30:17.215Z,1019.81
2023-02-23T09:31:18.404Z,1019.78
2023-02-23T09:32:19.407Z,1019.76
2023-02-23T09:33:19.929Z,1019.79
2023-02-23T09:34:20.513Z,1019.78
2023-02-23T09:35:21.317Z,1019.76
2023-02-23T09:36:21.910Z,1019.86
2023-02-23T09:37:22.510Z,1019.94
2023-02-23T09:38:23.102Z,1019.85
2023-02-23T09:39:36.989Z,1019.90
2023-02-23T09:40:25.304Z,1019.85
2023-02-23T09:41:51.826Z,1019.87
2023-02-23T09:42:52.493Z,1019.80
2023-02-23T09:43:53.088Z,1019.87
2023-02-23T09:44:53.684Z,1019.82
2023-02-23T09:45:54.316Z,1019.81
2023-02-23T09:46:54.909Z,1019.75
2023-02-23T09:47:55.524Z,1019.82
2023-02-23T09:48:56.119Z,1019.86
2023-02-23T09:49:56.722Z,1019.87
2023-02-23T09:50:58.176Z,1019.78
2023-02-23T09:51:58.786Z,1019.84
2023-02-23T09:52:59.942Z,1019.80
2023-02-23T09:54:01.620Z,1019.80
2023-02-23T09:55:02.276Z,1019.74
2023-02-23T09:56:02.904Z,1019.76
2023-02-23T09:57:03.492Z,1019.78
2023-02-23T09:58:04.102Z,1019.76
2023-02-23T09:59:04.771Z,1019.76
2023-02-23T10:00:05.376Z,1019.83
2023-02-23T10:01:05.970Z,1019.74
2023-02-23T10:02:06.625Z,1019.76
2023-02-23T10:03:07.235Z,1019.67
2023-02-23T10:04:07.839Z,1019.70
2023-02-23T10:05:08.451Z,1019.75
2023-02-23T10:06:09.037Z,1019.63
2023-02-23T10:07:09.641Z,1019.73
2023-02-23T10:08:10.238Z,1019.72
2023-02-23T10:09:10.983Z,1019.79
2023-02-23T10:10:11.609Z,1019.82
2023-02-23T10:11:12.200Z,1019.71
2023-02-23T10:12:12.806Z,1019.75
2023-02-23T10:13:13.396Z,1019.73
2023-02-23T10:14:13.996Z,1019.63
2023-02-23T10:15:14.603Z,1019.68
2023-02-23T10:16:15.223Z,1019.70
2023-02-23T10:17:15.858Z,1019.68
2023-02-23T10:18:16.457Z,1019.62
2023-02-23T10:19:17.059Z,1019.63
2023-02-23T10:20:17.673Z,1019.62
2023-02-23T10:21:18.748Z,1019.65
2023-02-23T10:22:19.502Z,1019.65
2023-02-23T10:23:20.157Z,1019.70
2023-02-23T10:24:20.753Z,1019.60
2023-02-23T10:25:21.356Z,1019.70
2023-02-23T10:26:21.962Z,1019.70
2023-02-23T10:27:22.555Z,1019.61
2023-02-23T10:28:23.153Z,1019.61
2023-02-23T10:29:23.750Z,1019.58
2023-02-23T10:30:24.362Z,1019.65
2023-02-23T10:31:25.106Z,1019.68
2023-02-23T10:32:25.925Z,1019.64
2023-02-23T10:33:26.891Z,1019.63
2023-02-23T10:34:27.620Z,1019.66
2023-02-23T10:35:28.671Z,1019.72
2023-02-23T10:36:29.220Z,1019.70
2023-02-23T10:37:29.922Z,1019.66
2023-02-23T10:38:30.528Z,1019.66
2023-02-23T10:39:31.138Z,1019.78
2023-02-23T10:40:31.732Z,1019.73
2023-02-23T10:41:32.343Z,1019.62
2023-02-23T10:42:32.947Z,1019.61
2023-02-23T10:43:33.546Z,1019.66
2023-02-23T10:44:34.147Z,1019.72
2023-02-23T10:45:34.742Z,1019.78
2023-02-23T10:46:35.352Z,1019.72
2023-02-23T10:47:35.975Z,1019.71
2023-02-23T10:48:36.646Z,1019.71
2023-02-23T10:49:37.265Z,1019.70
2023-02-23T10:50:37.921Z,1019.65
2023-02-23T10:51:38.524Z,1019.70
2023-02-23T10:52:42.254Z,1019.66
2023-02-23T10:53:40.719Z,1019.66
2023-02-23T10:54:41.315Z,1019.59
2023-02-23T10:55:41.961Z,1019.61
2023-02-23T10:56:42.613Z,1019.53
2023-02-23T10:57:43.219Z,1019.56
2023-02-23T10:58:43.888Z,1019.56
2023-02-23T10:59:44.478Z,1019.52
2023-02-23T11:00:45.074Z,1019.60
2023-02-23T11:02:00.929Z,1019.60
2023-02-23T11:02:47.235Z,1019.52
2023-02-23T11:03:52.245Z,1019.55
2023-02-23T11:04:49.534Z,1019.44
2023-02-23T11:05:50.110Z,1019.60
2023-02-23T11:06:50.711Z,1019.60
2023-02-23T11:07:51.315Z,1019.60
2023-02-23T11:08:51.914Z,1019.55
2023-02-23T11:09:52.522Z,1019.58
2023-02-23T11:10:53.205Z,1019.55
2023-02-23T11:11:53.841Z,1019.58
2023-02-23T11:12:54.437Z,1019.58
2023-02-23T11:13:55.032Z,1019.56
2023-02-23T11:14:55.648Z,1019.59
2023-02-23T11:15:56.282Z,1019.57
2023-02-23T11:16:56.896Z,1019.58
2023-02-23T11:17:57.509Z,1019.48
2023-02-23T11:18:58.105Z,1019.57
2023-02-23T11:19:58.723Z,1019.62
2023-02-23T11:20:59.316Z,1019.59
2023-02-23T11:21:59.920Z,1019.54
2023-02-23T11:23:09.540Z,1019.59
2023-02-23T11:24:02.099Z,1019.58
2023-02-23T11:25:02.701Z,1019.54
2023-02-23T11:26:03.305Z,1019.52
2023-02-23T11:27:03.934Z,1019.53
2023-02-23T11:28:04.521Z,1019.48
2023-02-23T11:29:05.126Z,1019.54
2023-02-23T11:30:05.722Z,1019.50
2023-02-23T11:31:06.403Z,1019.59
2023-02-23T11:32:10.076Z,1019.45
2023-02-23T11:33:08.697Z,1019.51
2023-02-23T11:34:09.372Z,1019.46
2023-02-23T11:35:09.973Z,1019.46
2023-02-23T11:36:10.563Z,1019.47
2023-02-23T11:37:11.168Z,1019.40
2023-02-23T11:38:11.770Z,1019.40
2023-02-23T11:39:12.365Z,1019.36
2023-02-23T11:40:12.968Z,1019.32
2023-02-23T11:41:13.578Z,1019.35
2023-02-23T11:42:14.178Z,1019.42
2023-02-23T11:43:14.778Z,1019.37
2023-02-23T11:44:15.387Z,1019.35
2023-02-23T11:45:15.991Z,1019.37
2023-02-23T11:46:16.876Z,1019.34
2023-02-23T11:47:17.663Z,1019.31
2023-02-23T11:48:18.252Z,1019.31
2023-02-23T11:49:18.855Z,1019.29
2023-02-23T11:50:19.455Z,1019.31
2023-02-23T11:51:20.058Z,1019.37
2023-02-23T11:52:20.670Z,1019.33
2023-02-23T11:53:22.518Z,1019.25
2023-02-23T11:54:23.142Z,1019.35
2023-02-23T11:55:23.731Z,1019.24
2023-02-23T11:56:24.325Z,1019.19
2023-02-23T11:57:24.928Z,1019.24
2023-02-23T11:58:26.386Z,1019.23
2023-02-23T11:59:26.991Z,1019.29
2023-02-23T12:00:27.716Z,1019.18
2023-02-23T12:01:28.383Z,1019.27
2023-02-23T12:02:28.980Z,1019.20
2023-02-23T12:03:29.677Z,1019.17
2023-02-23T12:04:30.309Z,1019.26
2023-02-23T12:05:30.940Z,1019.27
2023-02-23T12:06:31.603Z,1019.15
2023-02-23T12:07:32.196Z,1019.22
2023-02-23T12:08:32.795Z,1019.15
2023-02-23T12:09:33.394Z,1019.23
2023-02-23T12:10:34.036Z,1019.13
2023-02-23T12:11:34.652Z,1019.10
2023-02-23T12:12:35.255Z,1019.13
2023-02-23T12:13:35.924Z,1019.15